Time;durP1;ratioP1;P1;durP2;ratioP2;P2;SDS_P1;SDS_P2;PMS_P1;PMS_P2;Temp;Humidity;BMP_temperature;BMP_pressure;BME280_temperature;BME280_humidity;BME280_pressure;Samples;Min_cycle;Max_cycle;Signal;HPM_P1;HPM_P2
2022/10/09 00:02:56;;;;;;;3.10;1.63;;;10.30;56.70;;;;;;10360753;28;20609;-82
2022/10/09 00:08:17;;;;;;;4.93;1.33;;;10.30;23.50;;;;;;10353020;28;20219;-82
2022/10/09 00:13:41;;;;;;;2.70;1.10;;;;;;;;;;10365086;28;20560;-82
2022/10/09 00:19:02;;;;;;;3.17;1.33;;;;;;;;;;10366947;28;20502;-82
2022/10/09 00:24:24;;;;;;;5.17;1.40;;;;;;;;;;10352260;28;20397;-82
2022/10/09 00:29:46;;;;;;;2.07;0.90;;;;;;;;;;10378118;28;20483;-82
2022/10/09 00:35:07;;;;;;;3.20;1.03;;;;;;;;;;10364601;28;20369;-81
2022/10/09 00:40:29;;;;;;;2.80;1.20;;;;;;;;;;10350950;28;20223;-82
2022/10/09 00:45:55;;;;;;;2.47;0.87;;;;;;;;;;10380979;28;20242;-82
2022/10/09 00:51:16;;;;;;;2.30;1.10;;;9.60;99.90;;;;;;10363976;28;20221;-82
2022/10/09 00:56:37;;;;;;;2.37;1.10;;;9.70;99.90;;;;;;10399150;28;20234;-82
2022/10/09 01:01:59;;;;;;;3.17;1.30;;;;;;;;;;10369455;28;20544;-82
2022/10/09 01:07:26;;;;;;;4.97;1.50;;;;;;;;;;10396306;28;20249;-82
2022/10/09 01:13:06;;;;;;;3.77;1.00;;;;;;;;;;10361353;28;20393;-82
2022/10/09 01:18:53;;;;;;;2.60;1.40;;;;;;;;;;10391073;28;20492;-82
2022/10/09 01:24:21;;;;;;;1.90;1.10;;;;;;;;;;10382401;28;20481;-82
2022/10/09 01:29:51;;;;;;;3.87;1.20;;;;;;;;;;10384680;28;20187;-82
2022/10/09 01:35:14;;;;;;;3.70;1.10;;;;;;;;;;10368491;28;20202;-82
2022/10/09 01:40:35;;;;;;;3.13;1.20;;;;;;;;;;10368277;28;20508;-82
2022/10/09 01:46:33;;;;;;;3.07;1.30;;;;;;;;;;10371085;28;20358;-82
2022/10/09 01:51:57;;;;;;;3.10;1.33;;;;;;;;;;10126152;29;1276745;-82
2022/10/09 01:57:23;;;;;;;6.07;1.50;;;;;;;;;;10162108;29;20231;-82
2022/10/09 02:02:45;;;;;;;4.50;1.23;;;;;;;;;;10171421;29;20265;-82
2022/10/09 02:08:08;;;;;;;7.47;1.53;;;;;;;;;;10159569;29;20240;-82
2022/10/09 02:13:30;;;;;;;3.13;1.50;;;;;;;;;;10147386;29;20215;-82
2022/10/09 02:19:03;;;;;;;4.30;1.20;;;;;;;;;;10189280;29;20238;-82
2022/10/09 02:24:24;;;;;;;3.93;1.23;;;;;;;;;;10271165;28;20234;-83
2022/10/09 02:29:47;;;;;;;3.63;1.10;;;;;;;;;;10382547;28;20270;-82
2022/10/09 02:35:09;;;;;;;4.27;1.00;;;;;;;;;;10371616;28;20199;-82
2022/10/09 02:40:30;;;;;;;3.57;1.47;;;;;;;;;;10371591;28;20255;-82
2022/10/09 02:45:51;;;;;;;4.77;1.20;;;;;;;;;;10355009;28;20195;-82
2022/10/09 02:51:13;;;;;;;3.57;1.00;;;;;;;;;;10354493;28;20198;-82
2022/10/09 02:56:35;;;;;;;2.17;1.10;;;;;;;;;;10367976;28;20401;-81
2022/10/09 03:01:59;;;;;;;2.67;1.10;;;;;;;;;;10367490;28;20257;-82
2022/10/09 03:07:20;;;;;;;2.90;1.20;;;;;;;;;;10382522;28;20188;-82
2022/10/09 03:12:42;;;;;;;7.23;1.53;;;;;;;;;;10340262;28;20203;-82
2022/10/09 03:18:04;;;;;;;5.40;1.20;;;;;;;;;;10370884;28;20241;-81
2022/10/09 03:23:28;;;;;;;7.90;2.00;;;;;;;;;;10367299;28;20231;-82
2022/10/09 03:28:53;;;;;;;3.37;1.40;;;;;;;;;;10380100;28;20199;-82
2022/10/09 03:34:16;;;;;;;0.87;0.80;;;9.10;99.90;;;;;;10380327;28;20210;-82
2022/10/09 03:39:38;;;;;;;6.50;1.20;;;;;;;;;;10379859;28;20211;-82
2022/10/09 03:45:03;;;;;;;4.23;1.27;;;;;;;;;;10366158;28;20207;-82
2022/10/09 03:50:24;;;;;;;1.87;1.10;;;;;;;;;;10396480;28;20202;-82
2022/10/09 03:55:46;;;;;;;6.30;1.63;;;;;;;;;;10365436;28;20267;-81
2022/10/09 04:01:07;;;;;;;3.87;1.30;;;;;;;;;;10393186;28;20465;-82
2022/10/09 04:06:31;;;;;;;2.70;1.30;;;9.00;99.90;;;;;;10382649;28;20224;-82
2022/10/09 04:11:54;;;;;;;4.93;1.97;;;8.70;99.90;;;;;;10341063;28;20381;-83
2022/10/09 04:17:17;;;;;;;3.73;1.57;;;;;;;;;;10359806;28;20225;-82
2022/10/09 04:22:38;;;;;;;4.83;1.47;;;8.90;99.90;;;;;;10366190;28;20261;-82
2022/10/09 04:28:00;;;;;;;4.30;1.40;;;;;;;;;;10393572;28;20202;-82
2022/10/09 04:33:22;;;;;;;5.30;1.67;;;9.10;99.90;;;;;;10399569;28;20206;-82
2022/10/09 04:38:43;;;;;;;6.40;1.87;;;9.40;99.90;;;;;;10364091;28;20214;-82
2022/10/09 04:44:05;;;;;;;2.63;1.40;;;9.40;99.90;;;;;;10364424;28;20298;-82
2022/10/09 04:49:28;;;;;;;4.87;1.60;;;;;;;;;;10364467;28;20225;-82
2022/10/09 04:54:49;;;;;;;8.43;2.53;;;9.10;99.90;;;;;;10364001;28;20259;-82
2022/10/09 05:00:11;;;;;;;3.67;1.63;;;9.30;99.90;;;;;;10324105;28;20199;-82
2022/10/09 05:05:33;;;;;;;5.47;1.83;;;9.30;99.90;;;;;;10352003;28;20397;-81
2022/10/09 05:10:59;;;;;;;5.07;1.73;;;;;;;;;;10360425;28;20191;-82
2022/10/09 05:16:28;;;;;;;5.27;1.40;;;;;;;;;;10362990;28;20232;-82
2022/10/09 05:21:50;;;;;;;5.50;1.60;;;;;;;;;;10377205;28;20249;-82
2022/10/09 05:27:14;;;;;;;3.17;1.23;;;8.90;99.90;;;;;;10376994;28;20253;-82
2022/10/09 05:32:35;;;;;;;4.10;1.47;;;;;;;;;;10377137;28;20496;-82
2022/10/09 05:37:57;;;;;;;6.63;1.60;;;;;;;;;;10363353;28;20503;-81
2022/10/09 05:43:19;;;;;;;5.10;1.30;;;9.10;99.90;;;;;;10389855;28;20335;-82
2022/10/09 05:48:43;;;;;;;2.47;1.20;;;9.10;99.90;;;;;;10370593;28;20279;-82
2022/10/09 05:54:05;;;;;;;5.40;1.40;;;9.30;99.90;;;;;;10400623;28;20302;-82
2022/10/09 05:59:26;;;;;;;4.93;1.43;;;9.20;99.90;;;;;;10370329;28;20281;-82
2022/10/09 06:04:48;;;;;;;4.60;1.23;;;;;;;;;;10384102;28;20453;-81
2022/10/09 06:10:09;;;;;;;3.83;1.30;;;;;;;;;;10370169;28;20405;-82
2022/10/09 06:15:30;;;;;;;6.00;1.47;;;9.30;99.90;;;;;;10369694;28;20258;-82
2022/10/09 06:20:57;;;;;;;4.57;1.30;;;9.50;99.90;;;;;;10376811;28;20615;-82
2022/10/09 06:26:19;;;;;;;5.97;1.50;;;;;;;;;;10382915;28;20192;-82
2022/10/09 06:31:40;;;;;;;7.43;1.60;;;;;;;;;;10369141;28;20264;-82
2022/10/09 06:37:02;;;;;;;3.40;1.40;;;;;;;;;;10368830;28;20224;-82
2022/10/09 06:42:23;;;;;;;1.83;1.03;;;;;;;;;;10387752;28;20231;-83
2022/10/09 06:47:50;;;;;;;4.90;1.40;;;;;;;;;;10383037;28;20234;-82
2022/10/09 06:53:11;;;;;;;3.80;1.55;;;;;;;;;;10383669;28;20328;-83
2022/10/09 06:58:33;;;;;;;9.02;1.58;;;14.10;1.00;;;;;;10368381;28;20196;-83
2022/10/09 07:03:57;;;;;;;3.20;1.38;;;14.60;1.00;;;;;;10354428;28;20224;-83
2022/10/09 07:09:19;;;;;;;3.05;1.38;;;15.40;1.00;;;;;;10370680;28;20232;-83
2022/10/09 07:14:40;;;;;;;2.97;1.90;;;16.40;26.80;;;;;;10366860;28;20272;-83
2022/10/09 07:33:36;;;;;;;5.13;1.20;;;18.80;3.40;;;;;;10589372;27;20562;-82
2022/10/09 07:38:58;;;;;;;2.05;1.17;;;18.60;9.40;;;;;;10571915;28;20454;-83
2022/10/09 07:44:19;;;;;;;3.53;1.70;;;18.30;1.00;;;;;;10554316;28;20186;-82
2022/10/09 07:49:40;;;;;;;5.15;1.50;;;18.30;1.00;;;;;;10526247;28;20221;-82
2022/10/09 07:55:02;;;;;;;4.20;1.30;;;18.10;1.00;;;;;;10553594;28;20190;-82
2022/10/09 08:00:23;;;;;;;6.45;1.20;;;18.70;1.00;;;;;;10554104;28;20246;-82
2022/10/09 08:05:56;;;;;;;4.43;1.00;;;18.30;1.00;;;;;;10525425;28;20194;-82
2022/10/09 08:11:18;;;;;;;4.13;1.63;;;17.90;1.00;;;;;;10525144;28;20222;-82
2022/10/09 08:16:40;;;;;;;6.07;2.08;;;18.60;1.00;;;;;;10552453;28;20193;-82
2022/10/09 08:22:01;;;;;;;4.35;1.80;;;19.40;1.00;;;;;;10538074;28;20217;-82
2022/10/09 08:27:23;;;;;;;2.63;1.60;;;20.10;1.00;;;;;;10538706;28;20573;-83
2022/10/09 08:32:44;;;;;;;6.60;1.77;;;20.50;1.00;;;;;;10524258;28;20332;-83
2022/10/09 08:38:07;;;;;;;5.45;0.90;;;21.00;1.00;;;;;;10538438;28;20499;-83
2022/10/09 08:43:35;;;;;;;2.28;1.20;;;21.40;1.00;;;;;;10504869;28;20508;-83
2022/10/09 08:48:58;;;;;;;4.95;1.60;;;21.60;1.00;;;;;;10510937;28;20210;-83
2022/10/09 08:54:23;;;;;;;5.85;1.27;;;;;;;;;;10498961;28;20271;-83
2022/10/09 08:59:44;;;;;;;4.85;2.33;;;22.00;1.00;;;;;;10482678;28;20279;-83
2022/10/09 09:05:18;;;;;;;9.93;1.55;;;21.80;1.00;;;;;;10469183;28;20399;-82
2022/10/09 09:10:45;;;;;;;2.67;1.35;;;20.30;1.00;;;;;;10503226;28;20247;-82
2022/10/09 09:16:06;;;;;;;2.83;1.13;;;19.00;1.00;;;;;;10508938;28;20199;-82
2022/10/09 09:21:50;;;;;;;3.63;1.00;;;19.70;1.00;;;;;;10481306;28;20191;-82
2022/10/09 09:27:20;;;;;;;3.08;1.10;;;20.80;1.00;;;;;;10508280;28;20198;-82
2022/10/09 09:33:00;;;;;;;2.28;0.88;;;21.40;1.00;;;;;;10494030;28;20243;-82
2022/10/09 09:38:22;;;;;;;4.78;1.10;;;22.10;1.00;;;;;;10494203;28;20195;-82
2022/10/09 09:43:44;;;;;;;5.85;1.35;;;22.60;1.00;;;;;;10522156;28;20494;-83
2022/10/09 09:49:16;;;;;;;1.27;0.85;;;22.30;1.00;;;;;;10508017;28;20266;-83
2022/10/09 09:54:38;;;;;;;5.30;1.27;;;22.30;1.00;;;;;;10506330;28;20282;-83
2022/10/09 10:00:19;;;;;;;2.97;1.40;;;22.70;1.00;;;;;;10520746;28;20183;-82
2022/10/09 10:05:42;;;;;;;2.28;1.05;;;23.30;1.00;;;;;;10507168;28;20210;-83
2022/10/09 10:11:06;;;;;;;3.17;1.30;;;23.50;1.00;;;;;;10506868;28;20237;-83
2022/10/09 10:16:28;;;;;;;2.85;1.27;;;23.60;1.00;;;;;;10505301;28;20506;-83
2022/10/09 10:22:00;;;;;;;3.38;1.35;;;23.90;1.00;;;;;;10455841;28;20232;-83
2022/10/09 10:27:32;;;;;;;2.42;0.90;;;24.00;1.00;;;;;;10409707;28;20247;-82
2022/10/09 10:33:28;;;;;;;1.48;0.82;;;23.50;1.00;;;;;;10424236;28;20236;-82
2022/10/09 10:38:59;;;;;;;2.67;1.25;;;24.30;1.00;;;;;;10446310;28;20413;-83
2022/10/09 10:44:47;;;;;;;2.35;1.17;;;23.40;1.00;;;;;;10431475;28;20200;-83
2022/10/09 10:50:16;;;;;;;1.10;0.60;;;23.70;1.00;;;;;;10444028;28;20491;-83
2022/10/09 10:55:57;;;;;;;5.72;1.00;;;23.30;1.00;;;;;;10447185;28;20207;-82
2022/10/09 11:01:58;;;;;;;1.65;0.50;;;22.80;1.00;;;;;;10478593;28;20207;-83
2022/10/09 11:07:28;;;;;;;1.45;0.85;;;22.90;1.00;;;;;;10322033;28;20198;-82
2022/10/09 11:12:57;;;;;;;7.88;1.10;;;23.80;1.00;;;;;;10307584;28;20234;-82
2022/10/09 11:18:39;;;;;;;3.78;1.10;;;24.10;1.00;;;;;;10336385;28;20257;-83
2022/10/09 11:24:03;;;;;;;3.60;1.23;;;24.30;1.00;;;;;;10321125;28;20213;-82
2022/10/09 11:29:35;;;;;;;4.68;2.47;;;23.70;1.00;;;;;;10281400;28;20337;-82
2022/10/09 11:35:00;;;;;;;3.60;1.60;;;22.20;1.00;;;;;;10295045;28;20265;-82
2022/10/09 11:40:26;;;;;;;1.95;0.98;;;23.10;1.00;;;;;;10281095;28;20516;-83
2022/10/09 11:45:57;;;;;;;1.25;0.70;;;25.30;1.00;;;;;;10410657;28;20224;-82
2022/10/09 11:52:06;;;;;;;2.85;0.85;;;25.50;1.00;;;;;;10434993;28;20235;-82
2022/10/09 11:57:29;;;;;;;2.40;0.85;;;26.00;1.00;;;;;;10420459;28;20467;-84
2022/10/09 12:02:58;;;;;;;2.72;1.17;;;24.80;1.00;;;;;;10421113;28;20246;-84
2022/10/09 12:08:26;;;;;;;1.98;0.75;;;23.50;1.00;;;;;;10435268;28;20227;-82
2022/10/09 12:13:54;;;;;;;1.05;0.60;;;23.50;1.00;;;;;;10405161;28;20232;-84
2022/10/09 12:19:29;;;;;;;4.07;1.58;;;21.30;1.00;;;;;;10440319;28;20206;-84
2022/10/09 12:24:57;;;;;;;2.55;1.40;;;20.10;1.00;;;;;;10427671;28;20201;-83
2022/10/09 12:30:21;;;;;;;3.38;1.38;;;18.70;1.00;;;;;;10428555;28;20274;-83
2022/10/09 12:35:46;;;;;;;5.10;1.60;;;18.00;99.90;;;;;;10428001;28;20241;-83
2022/10/09 12:41:33;;;;;;;4.07;1.83;;;17.40;1.00;;;;;;10427247;28;20762;-84
2022/10/09 12:46:58;;;;;;;9.15;2.85;;;17.20;1.00;;;;;;10427077;28;20240;-83
2022/10/09 12:52:19;;;;;;;5.80;2.50;;;17.20;1.00;;;;;;10441060;28;20221;-84
2022/10/09 12:57:41;;;;;;;8.77;2.10;;;18.20;1.00;;;;;;10413189;28;20203;-84
2022/10/09 13:03:03;;;;;;;3.83;1.48;;;18.40;1.00;;;;;;10372106;28;20276;-84
2022/10/09 13:08:27;;;;;;;5.97;1.00;;;19.60;1.00;;;;;;10412585;28;20193;-84
2022/10/09 13:13:51;;;;;;;3.63;1.27;;;21.60;1.00;;;;;;10425163;28;20454;-84
2022/10/09 13:19:27;;;;;;;6.18;1.25;;;22.10;1.00;;;;;;10425985;28;20431;-84
2022/10/09 13:24:52;;;;;;;1.83;0.90;;;22.80;99.90;;;;;;10454340;28;20207;-84
2022/10/09 13:30:13;;;;;;;2.53;1.20;;;23.10;99.90;;;;;;10424211;28;20238;-83
2022/10/09 13:35:35;;;;;;;3.70;1.70;;;22.70;99.90;;;;;;10429147;28;20264;-83
2022/10/09 13:40:58;;;;;;;6.90;1.42;;;20.80;99.90;;;;;;10425379;28;20250;-84
2022/10/09 13:46:19;;;;;;;3.15;1.27;;;19.70;99.90;;;;;;10424739;28;20219;-84
2022/10/09 13:51:41;;;;;;;4.28;1.50;;;20.00;99.90;;;;;;10411395;28;20224;-84
2022/10/09 13:57:03;;;;;;;2.55;1.08;;;20.80;99.90;;;;;;10438600;28;20343;-84
2022/10/09 14:02:25;;;;;;;4.13;1.20;;;21.10;99.90;;;;;;10424329;28;20383;-84
2022/10/09 14:07:47;;;;;;;1.80;0.93;;;20.40;99.90;;;;;;10424571;28;20238;-83
2022/10/09 14:13:09;;;;;;;5.07;1.75;;;19.40;99.90;;;;;;10424821;28;20232;-84
2022/10/09 14:18:31;;;;;;;4.00;1.10;;;18.40;99.90;;;;;;10429721;28;20253;-83
2022/10/09 14:23:54;;;;;;;1.27;0.60;;;17.90;1.00;;;;;;10422272;28;20510;-84
2022/10/09 14:29:16;;;;;;;2.58;1.00;;;17.50;1.00;;;;;;10401829;28;20236;-83
2022/10/09 14:34:38;;;;;;;1.70;0.70;;;16.90;99.90;;;;;;10410061;28;20213;-84
2022/10/09 14:39:59;;;;;;;1.70;0.90;;;16.60;1.00;;;;;;10395512;28;20250;-84
2022/10/09 14:45:20;;;;;;;4.13;0.90;;;16.50;1.00;;;;;;10430670;28;20253;-84
2022/10/09 14:50:42;;;;;;;2.22;0.93;;;16.40;1.00;;;;;;10436463;28;20545;-83
2022/10/09 14:56:05;;;;;;;4.05;1.10;;;16.30;1.00;;;;;;10408903;28;20375;-83
2022/10/09 15:01:28;;;;;;;4.95;1.67;;;16.00;1.00;;;;;;10408701;28;20495;-84
2022/10/09 15:06:49;;;;;;;1.85;0.70;;;15.90;1.00;;;;;;10437393;28;20502;-84
2022/10/09 15:12:10;;;;;;;4.35;1.05;;;15.70;1.00;;;;;;10436803;28;20224;-84
2022/10/09 15:17:31;;;;;;;3.20;0.68;;;15.60;1.00;;;;;;10434651;28;20206;-84
2022/10/09 15:22:53;;;;;;;3.58;1.00;;;15.40;1.00;;;;;;10435197;28;20202;-83
2022/10/09 15:28:18;;;;;;;8.10;4.03;;;15.30;1.00;;;;;;10421891;28;20239;-84
2022/10/09 15:33:39;;;;;;;10.25;4.55;;;15.20;99.90;;;;;;10409594;28;20237;-83
2022/10/09 15:39:04;;;;;;;10.27;6.05;;;15.00;99.90;;;;;;10440954;28;20250;-83
2022/10/09 15:44:28;;;;;;;14.20;6.75;;;14.80;1.00;;;;;;10466253;28;20235;-83
2022/10/09 15:49:49;;;;;;;9.17;5.70;;;14.60;99.90;;;;;;10435426;28;20202;-84
2022/10/09 15:55:12;;;;;;;6.70;3.83;;;14.40;99.90;;;;;;10428851;28;20201;-84
2022/10/09 16:00:36;;;;;;;7.78;2.78;;;14.20;1.00;;;;;;10415476;28;20274;-84
2022/10/09 16:05:59;;;;;;;5.60;3.00;;;14.10;1.00;;;;;;10415873;28;20207;-84
2022/10/09 16:11:21;;;;;;;10.07;4.27;;;13.90;1.00;;;;;;10442825;28;20322;-83
2022/10/09 16:16:42;;;;;;;8.20;4.60;;;13.80;1.00;;;;;;10413928;28;20202;-83
2022/10/09 16:22:04;;;;;;;11.40;7.67;;;13.50;99.90;;;;;;10428463;28;20210;-83
2022/10/09 16:27:26;;;;;;;25.40;16.30;;;13.20;84.50;;;;;;10428606;28;20202;-84
2022/10/09 16:32:47;;;;;;;43.60;27.63;;;13.00;1.00;;;;;;10414859;28;20558;-84
2022/10/09 16:38:09;;;;;;;73.83;38.23;;;12.80;1.00;;;;;;10428473;28;20278;-83
2022/10/09 16:43:33;;;;;;;75.93;41.67;;;12.50;1.00;;;;;;10413556;28;20195;-83
2022/10/09 16:48:56;;;;;;;69.40;38.97;;;12.40;99.90;;;;;;10427620;28;20290;-84
2022/10/09 16:54:18;;;;;;;59.57;33.17;;;12.50;1.00;;;;;;10413633;28;20228;-84
2022/10/09 16:59:39;;;;;;;59.00;31.60;;;12.00;99.90;;;;;;10412980;28;20313;-83
2022/10/09 17:05:00;;;;;;;69.20;37.23;;;11.80;99.90;;;;;;10413144;28;20197;-84
2022/10/09 17:10:22;;;;;;;103.00;53.83;;;11.70;1.00;;;;;;10426576;28;20209;-83
2022/10/09 17:15:43;;;;;;;118.13;57.27;;;11.40;1.00;;;;;;10425751;28;20201;-83
2022/10/09 17:21:07;;;;;;;117.07;59.10;;;11.30;1.00;;;;;;10426187;28;20242;-83
2022/10/09 17:26:29;;;;;;;91.30;47.93;;;;;;;;;;10426936;28;20415;-83
2022/10/09 17:31:51;;;;;;;91.17;44.30;;;;;;;;;;10425125;28;20324;-83
2022/10/09 17:37:13;;;;;;;80.40;42.67;;;;;;;;;;10425902;28;20190;-83
2022/10/09 17:42:34;;;;;;;80.03;42.53;;;10.70;1.00;;;;;;10411188;28;20204;-84
2022/10/09 17:47:56;;;;;;;101.73;51.10;;;10.70;97.60;;;;;;10425903;28;20289;-83
2022/10/09 17:53:17;;;;;;;122.27;59.60;;;10.60;27.60;;;;;;10425246;28;20248;-83
2022/10/09 17:58:39;;;;;;;134.20;67.37;;;10.50;99.90;;;;;;10440134;28;20488;-83
2022/10/09 18:04:01;;;;;;;177.73;91.23;;;10.40;99.90;;;;;;10453015;28;20205;-84
2022/10/09 18:09:22;;;;;;;192.57;95.87;;;10.40;99.90;;;;;;10455817;28;20192;-83
2022/10/09 18:14:44;;;;;;;195.63;101.77;;;10.20;99.90;;;;;;10398850;28;20223;-83
2022/10/09 18:20:06;;;;;;;191.63;102.43;;;10.10;99.90;;;;;;10413410;28;20207;-83
2022/10/09 18:25:27;;;;;;;153.87;83.77;;;10.10;99.90;;;;;;10393307;28;20209;-83
2022/10/09 18:30:49;;;;;;;145.57;79.10;;;9.90;99.90;;;;;;10409883;28;20244;-83
2022/10/09 18:36:18;;;;;;;152.60;76.87;;;10.00;99.90;;;;;;10423227;28;20195;-83
2022/10/09 18:41:40;;;;;;;142.53;74.33;;;9.80;1.00;;;;;;10422867;28;20199;-83
2022/10/09 18:47:03;;;;;;;134.53;67.73;;;9.70;1.00;;;;;;10451259;28;20192;-82
2022/10/09 18:52:25;;;;;;;122.50;65.93;;;9.60;99.90;;;;;;10423027;28;20223;-83
2022/10/09 18:57:47;;;;;;;124.20;66.97;;;9.60;1.00;;;;;;10408810;28;20217;-83
2022/10/09 19:03:08;;;;;;;121.80;69.17;;;9.30;1.00;;;;;;10408871;28;20405;-82
2022/10/09 19:08:32;;;;;;;126.03;70.13;;;9.30;1.00;;;;;;10407628;28;20206;-83
2022/10/09 19:13:54;;;;;;;140.03;81.33;;;9.30;1.00;;;;;;10407613;28;20234;-83
2022/10/09 19:19:15;;;;;;;137.33;86.37;;;9.30;99.90;;;;;;10454673;28;20226;-83
2022/10/09 19:24:36;;;;;;;144.00;88.43;;;9.10;1.00;;;;;;10407595;28;20270;-83
2022/10/09 19:29:58;;;;;;;105.93;61.33;;;9.10;1.00;;;;;;10435735;28;20229;-83
2022/10/09 19:35:19;;;;;;;83.03;48.63;;;9.00;1.00;;;;;;10421848;28;20253;-82
2022/10/09 19:40:41;;;;;;;73.87;42.63;;;8.90;1.00;;;;;;10431717;28;20194;-83
2022/10/09 19:46:03;;;;;;;73.27;41.30;;;;;;;;;;10435577;28;20200;-83
2022/10/09 19:51:25;;;;;;;70.03;38.93;;;9.10;1.00;;;;;;10421167;28;20388;-83
2022/10/09 19:56:47;;;;;;;73.83;41.97;;;8.60;1.00;;;;;;10421180;28;20237;-83
2022/10/09 20:02:08;;;;;;;113.80;63.20;;;8.70;1.00;;;;;;10436536;28;20377;-83
2022/10/09 20:07:30;;;;;;;136.10;78.23;;;8.60;1.00;;;;;;10420548;28;20193;-82
2022/10/09 20:12:51;;;;;;;132.97;77.53;;;8.50;1.00;;;;;;10420942;28;20414;-83
2022/10/09 20:18:12;;;;;;;114.00;66.27;;;8.40;1.00;;;;;;10420336;28;20202;-83
2022/10/09 20:23:34;;;;;;;109.77;60.83;;;8.40;1.00;;;;;;10434125;28;20399;-83
2022/10/09 20:28:56;;;;;;;117.27;67.07;;;8.30;99.90;;;;;;10435151;28;20248;-83
2022/10/09 20:34:17;;;;;;;121.07;68.67;;;8.20;1.00;;;;;;10420602;28;20284;-83
2022/10/09 20:39:38;;;;;;;126.57;68.13;;;8.20;1.00;;;;;;10439041;28;20190;-83
2022/10/09 20:45:00;;;;;;;113.90;61.17;;;8.20;1.00;;;;;;10441751;28;20191;-83
2022/10/09 20:50:59;;;;;;;113.40;59.17;;;8.10;1.00;;;;;;10413858;28;20204;-83
2022/10/09 20:57:01;;;;;;;112.47;58.73;;;8.00;1.00;;;;;;10440333;28;20507;-83
2022/10/09 21:02:23;;;;;;;129.77;65.43;;;8.00;1.00;;;;;;10427305;28;20211;-83
2022/10/09 21:07:44;;;;;;;136.37;69.53;;;8.00;99.90;;;;;;10440703;28;20192;-83
2022/10/09 21:13:06;;;;;;;150.03;72.93;;;7.80;99.90;;;;;;10440191;28;20402;-83
2022/10/09 21:18:27;;;;;;;145.43;76.43;;;7.80;99.90;;;;;;10454740;28;20204;-83
2022/10/09 21:23:53;;;;;;;142.23;71.70;;;7.80;1.00;;;;;;10426059;28;20226;-83
2022/10/09 21:29:14;;;;;;;144.43;70.80;;;7.70;1.00;;;;;;10385294;28;20280;-83
2022/10/09 21:34:35;;;;;;;144.20;70.43;;;7.60;99.90;;;;;;10399053;28;20238;-82
2022/10/09 21:39:57;;;;;;;136.63;70.77;;;7.50;99.90;;;;;;10438050;28;20200;-83
2022/10/09 21:52:25;;;;;;;139.17;67.33;;;7.50;99.90;;;;;;10440223;28;20543;-83
2022/10/09 21:57:47;;;;;;;136.87;67.77;;;7.50;1.00;;;;;;10411196;28;20210;-83
2022/10/09 22:09:41;;;;;;;121.90;64.67;;;7.30;99.90;;;;;;10461920;28;20201;-83
2022/10/09 22:15:04;;;;;;;132.43;65.53;;;7.20;1.00;;;;;;10476382;28;20318;-83
2022/10/09 22:20:26;;;;;;;128.03;65.63;;;7.20;1.00;;;;;;10458237;28;20196;-83
2022/10/09 22:26:04;;;;;;;124.70;65.57;;;7.20;1.00;;;;;;10461747;28;20242;-83
2022/10/09 22:31:37;;;;;;;127.17;64.07;;;7.10;1.00;;;;;;10448797;28;20240;-82
2022/10/09 22:36:58;;;;;;;110.07;56.20;;;7.20;99.90;;;;;;10421178;28;20288;-83
2022/10/09 22:42:19;;;;;;;105.33;53.57;;;7.10;1.00;;;;;;10394466;28;20200;-82
2022/10/09 22:47:41;;;;;;;112.43;56.67;;;7.00;1.00;;;;;;10404938;28;20200;-82
2022/10/09 22:53:02;;;;;;;123.73;57.83;;;7.00;99.90;;;;;;10409634;28;20227;-82
2022/10/09 22:58:24;;;;;;;121.23;59.03;;;6.90;99.90;;;;;;10408920;28;20202;-83
2022/10/09 23:03:45;;;;;;;112.07;54.17;;;6.90;1.00;;;;;;10421924;28;20554;-83
2022/10/09 23:09:08;;;;;;;105.70;54.07;;;6.90;99.90;;;;;;10436419;28;20188;-82
2022/10/09 23:14:29;;;;;;;100.87;50.47;;;6.80;99.90;;;;;;10422688;28;20269;-83
2022/10/09 23:19:51;;;;;;;100.37;50.90;;;6.70;99.90;;;;;;10414704;28;20275;-82
2022/10/09 23:25:12;;;;;;;94.63;46.90;;;6.70;99.90;;;;;;10405302;28;20286;-82
2022/10/09 23:30:33;;;;;;;84.43;43.30;;;6.70;99.90;;;;;;10436341;28;20227;-83
2022/10/09 23:35:54;;;;;;;90.70;46.97;;;6.60;1.00;;;;;;10421921;28;20555;-83
2022/10/09 23:41:45;;;;;;;83.53;44.93;;;6.70;99.90;;;;;;10407277;28;20383;-82
2022/10/09 23:47:07;;;;;;;84.33;43.33;;;6.60;99.90;;;;;;10420633;28;20208;-83
2022/10/09 23:52:28;;;;;;;83.50;43.50;;;6.60;99.90;;;;;;10408792;28;20231;-82
2022/10/09 23:57:50;;;;;;;83.63;41.17;;;6.60;99.90;;;;;;10421762;28;20222;-82
